sensor_id;sensor_type;location;lat;lon;timestamp;P1;durP1;ratioP1;P2;durP2;ratioP2
64623;SDS011;51031;50.912;9.242;2022-07-06T00:00:08;226.50;;;172.80;;
64623;SDS011;51031;50.912;9.242;2022-07-06T00:00:26;277.17;;;217.00;;
64623;SDS011;51031;50.912;9.242;2022-07-06T00:00:41;242.65;;;188.90;;
64623;SDS011;51031;50.912;9.242;2022-07-06T00:00:57;258.40;;;200.60;;
64623;SDS011;51031;50.912;9.242;2022-07-06T00:01:13;277.77;;;217.73;;
64623;SDS011;51031;50.912;9.242;2022-07-06T00:01:29;250.07;;;196.18;;
64623;SDS011;51031;50.912;9.242;2022-07-06T00:01:45;247.25;;;190.98;;
64623;SDS011;51031;50.912;9.242;2022-07-06T00:02:02;260.67;;;200.68;;
64623;SDS011;51031;50.912;9.242;2022-07-06T00:02:18;257.75;;;200.88;;
64623;SDS011;51031;50.912;9.242;2022-07-06T00:02:34;273.92;;;213.80;;
64623;SDS011;51031;50.912;9.242;2022-07-06T00:02:50;241.82;;;185.82;;
64623;SDS011;51031;50.912;9.242;2022-07-06T00:03:05;253.57;;;196.87;;
64623;SDS011;51031;50.912;9.242;2022-07-06T00:03:22;286.90;;;225.25;;
64623;SDS011;51031;50.912;9.242;2022-07-06T00:03:38;275.73;;;215.07;;
64623;SDS011;51031;50.912;9.242;2022-07-06T00:03:54;277.97;;;218.67;;
64623;SDS011;51031;50.912;9.242;2022-07-06T00:04:11;286.10;;;226.73;;
64623;SDS011;51031;50.912;9.242;2022-07-06T00:04:27;289.33;;;229.07;;
64623;SDS011;51031;50.912;9.242;2022-07-06T00:04:44;283.55;;;224.98;;
64623;SDS011;51031;50.912;9.242;2022-07-06T00:04:59;281.55;;;222.38;;
64623;SDS011;51031;50.912;9.242;2022-07-06T00:05:15;291.57;;;228.20;;
64623;SDS011;51031;50.912;9.242;2022-07-06T00:05:31;292.85;;;230.75;;
64623;SDS011;51031;50.912;9.242;2022-07-06T00:05:47;289.17;;;226.03;;
64623;SDS011;51031;50.912;9.242;2022-07-06T00:06:04;292.65;;;228.48;;
64623;SDS011;51031;50.912;9.242;2022-07-06T00:06:21;293.00;;;230.48;;
64623;SDS011;51031;50.912;9.242;2022-07-06T00:06:37;286.30;;;225.45;;
64623;SDS011;51031;50.912;9.242;2022-07-06T00:06:52;289.53;;;227.47;;
64623;SDS011;51031;50.912;9.242;2022-07-06T00:07:08;296.27;;;229.73;;
64623;SDS011;51031;50.912;9.242;2022-07-06T00:07:24;294.88;;;229.85;;
64623;SDS011;51031;50.912;9.242;2022-07-06T00:07:43;287.17;;;226.38;;
64623;SDS011;51031;50.912;9.242;2022-07-06T00:07:59;288.60;;;229.13;;
64623;SDS011;51031;50.912;9.242;2022-07-06T00:08:15;295.43;;;235.60;;
64623;SDS011;51031;50.912;9.242;2022-07-06T00:08:30;282.30;;;222.75;;
64623;SDS011;51031;50.912;9.242;2022-07-06T00:08:46;286.42;;;222.63;;
64623;SDS011;51031;50.912;9.242;2022-07-06T00:09:02;298.37;;;230.47;;
64623;SDS011;51031;50.912;9.242;2022-07-06T00:09:18;294.80;;;229.93;;
64623;SDS011;51031;50.912;9.242;2022-07-06T00:09:35;293.95;;;229.93;;
64623;SDS011;51031;50.912;9.242;2022-07-06T00:09:51;296.08;;;232.82;;
64623;SDS011;51031;50.912;9.242;2022-07-06T00:10:07;300.63;;;237.95;;
64623;SDS011;51031;50.912;9.242;2022-07-06T00:10:22;296.58;;;234.43;;
64623;SDS011;51031;50.912;9.242;2022-07-06T00:10:38;264.80;;;207.10;;
64623;SDS011;51031;50.912;9.242;2022-07-06T00:10:55;257.23;;;196.77;;
64623;SDS011;51031;50.912;9.242;2022-07-06T00:11:11;257.13;;;195.70;;
64623;SDS011;51031;50.912;9.242;2022-07-06T00:11:27;235.80;;;180.00;;
64623;SDS011;51031;50.912;9.242;2022-07-06T00:11:43;249.57;;;190.82;;
64623;SDS011;51031;50.912;9.242;2022-07-06T00:11:58;278.63;;;214.73;;
64623;SDS011;51031;50.912;9.242;2022-07-06T00:12:14;289.45;;;224.00;;
64623;SDS011;51031;50.912;9.242;2022-07-06T00:12:31;268.25;;;209.13;;
64623;SDS011;51031;50.912;9.242;2022-07-06T00:12:47;260.42;;;201.35;;
64623;SDS011;51031;50.912;9.242;2022-07-06T00:13:03;289.35;;;225.50;;
64623;SDS011;51031;50.912;9.242;2022-07-06T00:13:19;301.93;;;237.17;;
64623;SDS011;51031;50.912;9.242;2022-07-06T00:13:35;302.20;;;237.60;;
64623;SDS011;51031;50.912;9.242;2022-07-06T00:13:52;289.85;;;227.77;;
64623;SDS011;51031;50.912;9.242;2022-07-06T00:14:07;284.80;;;219.45;;
64623;SDS011;51031;50.912;9.242;2022-07-06T00:14:23;286.83;;;222.48;;
64623;SDS011;51031;50.912;9.242;2022-07-06T00:14:39;283.88;;;220.65;;
64623;SDS011;51031;50.912;9.242;2022-07-06T00:14:55;267.67;;;204.07;;
64623;SDS011;51031;50.912;9.242;2022-07-06T00:15:15;270.25;;;206.55;;
64623;SDS011;51031;50.912;9.242;2022-07-06T00:15:30;295.98;;;228.65;;
64623;SDS011;51031;50.912;9.242;2022-07-06T00:15:46;296.03;;;231.73;;
64623;SDS011;51031;50.912;9.242;2022-07-06T00:16:02;300.40;;;237.43;;
64623;SDS011;51031;50.912;9.242;2022-07-06T00:16:19;303.63;;;240.07;;
64623;SDS011;51031;50.912;9.242;2022-07-06T00:16:35;284.70;;;223.55;;
64623;SDS011;51031;50.912;9.242;2022-07-06T00:16:51;291.08;;;229.75;;
64623;SDS011;51031;50.912;9.242;2022-07-06T00:17:07;312.58;;;246.48;;
64623;SDS011;51031;50.912;9.242;2022-07-06T00:17:23;305.20;;;239.07;;
64623;SDS011;51031;50.912;9.242;2022-07-06T00:17:39;287.60;;;223.68;;
64623;SDS011;51031;50.912;9.242;2022-07-06T00:17:56;286.48;;;223.23;;
64623;SDS011;51031;50.912;9.242;2022-07-06T00:18:11;294.65;;;231.25;;
64623;SDS011;51031;50.912;9.242;2022-07-06T00:18:27;293.02;;;228.85;;
64623;SDS011;51031;50.912;9.242;2022-07-06T00:18:43;288.30;;;222.90;;
64623;SDS011;51031;50.912;9.242;2022-07-06T00:18:59;287.30;;;222.98;;
64623;SDS011;51031;50.912;9.242;2022-07-06T00:19:16;287.30;;;223.23;;
64623;SDS011;51031;50.912;9.242;2022-07-06T00:19:35;271.08;;;210.63;;
64623;SDS011;51031;50.912;9.242;2022-07-06T00:19:51;279.40;;;219.82;;
64623;SDS011;51031;50.912;9.242;2022-07-06T00:20:07;296.92;;;235.52;;
64623;SDS011;51031;50.912;9.242;2022-07-06T00:20:23;278.13;;;218.40;;
64623;SDS011;51031;50.912;9.242;2022-07-06T00:20:41;268.50;;;209.30;;
64623;SDS011;51031;50.912;9.242;2022-07-06T00:20:58;280.08;;;217.20;;
64623;SDS011;51031;50.912;9.242;2022-07-06T00:21:14;259.10;;;203.48;;
64623;SDS011;51031;50.912;9.242;2022-07-06T00:21:30;263.02;;;208.15;;
64623;SDS011;51031;50.912;9.242;2022-07-06T00:21:46;296.73;;;233.15;;
64623;SDS011;51031;50.912;9.242;2022-07-06T00:22:02;296.17;;;233.63;;
64623;SDS011;51031;50.912;9.242;2022-07-06T00:22:19;311.10;;;245.85;;
64623;SDS011;51031;50.912;9.242;2022-07-06T00:22:34;299.23;;;234.00;;
64623;SDS011;51031;50.912;9.242;2022-07-06T00:22:50;291.27;;;224.77;;
64623;SDS011;51031;50.912;9.242;2022-07-06T00:23:06;292.45;;;225.70;;
64623;SDS011;51031;50.912;9.242;2022-07-06T00:23:22;304.05;;;235.88;;
64623;SDS011;51031;50.912;9.242;2022-07-06T00:23:38;320.17;;;250.07;;
64623;SDS011;51031;50.912;9.242;2022-07-06T00:23:55;319.02;;;250.93;;
64623;SDS011;51031;50.912;9.242;2022-07-06T00:24:13;324.42;;;258.52;;
64623;SDS011;51031;50.912;9.242;2022-07-06T00:24:29;315.30;;;250.90;;
64623;SDS011;51031;50.912;9.242;2022-07-06T00:24:44;305.33;;;241.45;;
64623;SDS011;51031;50.912;9.242;2022-07-06T00:25:00;298.23;;;232.17;;
64623;SDS011;51031;50.912;9.242;2022-07-06T00:25:16;293.45;;;226.73;;
64623;SDS011;51031;50.912;9.242;2022-07-06T00:25:33;283.17;;;222.15;;
64623;SDS011;51031;50.912;9.242;2022-07-06T00:25:48;292.17;;;230.25;;
64623;SDS011;51031;50.912;9.242;2022-07-06T00:26:04;300.55;;;236.23;;
64623;SDS011;51031;50.912;9.242;2022-07-06T00:26:20;293.27;;;228.45;;
64623;SDS011;51031;50.912;9.242;2022-07-06T00:26:36;294.50;;;229.20;;
64623;SDS011;51031;50.912;9.242;2022-07-06T00:26:52;294.10;;;230.02;;
64623;SDS011;51031;50.912;9.242;2022-07-06T00:27:09;294.77;;;233.13;;
64623;SDS011;51031;50.912;9.242;2022-07-06T00:27:25;306.77;;;241.80;;
64623;SDS011;51031;50.912;9.242;2022-07-06T00:27:41;304.15;;;238.93;;
64623;SDS011;51031;50.912;9.242;2022-07-06T00:27:59;302.27;;;237.23;;
64623;SDS011;51031;50.912;9.242;2022-07-06T00:28:14;301.83;;;237.07;;
64623;SDS011;51031;50.912;9.242;2022-07-06T00:28:31;303.65;;;239.38;;
64623;SDS011;51031;50.912;9.242;2022-07-06T00:28:47;299.63;;;234.95;;
64623;SDS011;51031;50.912;9.242;2022-07-06T00:29:03;292.55;;;228.30;;
64623;SDS011;51031;50.912;9.242;2022-07-06T00:29:19;289.48;;;225.20;;
64623;SDS011;51031;50.912;9.242;2022-07-06T00:29:35;283.15;;;221.48;;
64623;SDS011;51031;50.912;9.242;2022-07-06T00:29:52;283.65;;;225.25;;
64623;SDS011;51031;50.912;9.242;2022-07-06T00:30:08;287.63;;;227.20;;
64623;SDS011;51031;50.912;9.242;2022-07-06T00:30:24;289.75;;;225.35;;
64623;SDS011;51031;50.912;9.242;2022-07-06T00:30:39;295.27;;;229.87;;
64623;SDS011;51031;50.912;9.242;2022-07-06T00:30:55;303.42;;;238.68;;
64623;SDS011;51031;50.912;9.242;2022-07-06T00:31:11;305.42;;;239.13;;
64623;SDS011;51031;50.912;9.242;2022-07-06T00:31:28;286.05;;;222.73;;
64623;SDS011;51031;50.912;9.242;2022-07-06T00:31:44;280.08;;;216.82;;
64623;SDS011;51031;50.912;9.242;2022-07-06T00:32:00;289.90;;;224.82;;
64623;SDS011;51031;50.912;9.242;2022-07-06T00:32:16;273.85;;;211.32;;
64623;SDS011;51031;50.912;9.242;2022-07-06T00:32:33;253.68;;;195.20;;
64623;SDS011;51031;50.912;9.242;2022-07-06T00:32:48;274.63;;;212.68;;
64623;SDS011;51031;50.912;9.242;2022-07-06T00:33:04;276.13;;;213.23;;
64623;SDS011;51031;50.912;9.242;2022-07-06T00:33:22;279.52;;;213.90;;
64623;SDS011;51031;50.912;9.242;2022-07-06T00:33:39;285.10;;;221.18;;
64623;SDS011;51031;50.912;9.242;2022-07-06T00:33:54;281.05;;;218.80;;
64623;SDS011;51031;50.912;9.242;2022-07-06T00:34:11;279.80;;;218.13;;
64623;SDS011;51031;50.912;9.242;2022-07-06T00:34:28;268.15;;;207.40;;
64623;SDS011;51031;50.912;9.242;2022-07-06T00:34:44;252.35;;;194.05;;
64623;SDS011;51031;50.912;9.242;2022-07-06T00:35:00;248.07;;;191.43;;
64623;SDS011;51031;50.912;9.242;2022-07-06T00:35:17;265.13;;;203.63;;
64623;SDS011;51031;50.912;9.242;2022-07-06T00:35:33;272.48;;;210.15;;
64623;SDS011;51031;50.912;9.242;2022-07-06T00:35:50;268.42;;;206.82;;
64623;SDS011;51031;50.912;9.242;2022-07-06T00:36:06;259.33;;;198.95;;
64623;SDS011;51031;50.912;9.242;2022-07-06T00:36:22;258.08;;;198.50;;
64623;SDS011;51031;50.912;9.242;2022-07-06T00:36:38;266.00;;;201.98;;
64623;SDS011;51031;50.912;9.242;2022-07-06T00:36:54;256.90;;;191.23;;
64623;SDS011;51031;50.912;9.242;2022-07-06T00:37:11;233.82;;;174.43;;
64623;SDS011;51031;50.912;9.242;2022-07-06T00:37:26;232.63;;;175.70;;
64623;SDS011;51031;50.912;9.242;2022-07-06T00:37:42;252.45;;;191.43;;
64623;SDS011;51031;50.912;9.242;2022-07-06T00:38:00;249.20;;;188.07;;
64623;SDS011;51031;50.912;9.242;2022-07-06T00:38:16;200.18;;;151.52;;
64623;SDS011;51031;50.912;9.242;2022-07-06T00:38:32;133.10;;;98.30;;
64623;SDS011;51031;50.912;9.242;2022-07-06T00:38:49;164.40;;;121.55;;
64623;SDS011;51031;50.912;9.242;2022-07-06T00:39:05;228.30;;;172.93;;
64623;SDS011;51031;50.912;9.242;2022-07-06T00:39:21;264.23;;;201.10;;
64623;SDS011;51031;50.912;9.242;2022-07-06T00:39:38;267.60;;;204.48;;
64623;SDS011;51031;50.912;9.242;2022-07-06T00:39:54;261.58;;;199.45;;
64623;SDS011;51031;50.912;9.242;2022-07-06T00:40:11;231.35;;;175.77;;
64623;SDS011;51031;50.912;9.242;2022-07-06T00:40:27;219.27;;;163.15;;
64623;SDS011;51031;50.912;9.242;2022-07-06T00:40:45;242.18;;;180.48;;
64623;SDS011;51031;50.912;9.242;2022-07-06T00:41:01;244.32;;;184.32;;
64623;SDS011;51031;50.912;9.242;2022-07-06T00:41:17;243.80;;;183.10;;
64623;SDS011;51031;50.912;9.242;2022-07-06T00:41:34;207.57;;;155.23;;
64623;SDS011;51031;50.912;9.242;2022-07-06T00:41:49;180.30;;;135.07;;
64623;SDS011;51031;50.912;9.242;2022-07-06T00:42:05;230.82;;;175.30;;
64623;SDS011;51031;50.912;9.242;2022-07-06T00:42:21;208.07;;;157.85;;
64623;SDS011;51031;50.912;9.242;2022-07-06T00:42:40;213.73;;;158.98;;
64623;SDS011;51031;50.912;9.242;2022-07-06T00:42:57;250.07;;;187.93;;
64623;SDS011;51031;50.912;9.242;2022-07-06T00:43:13;247.60;;;188.77;;
64623;SDS011;51031;50.912;9.242;2022-07-06T00:43:44;242.53;;;184.93;;
64623;SDS011;51031;50.912;9.242;2022-07-06T00:44:05;174.43;;;130.07;;
64623;SDS011;51031;50.912;9.242;2022-07-06T00:44:23;218.93;;;163.13;;
64623;SDS011;51031;50.912;9.242;2022-07-06T00:44:39;240.85;;;179.32;;
64623;SDS011;51031;50.912;9.242;2022-07-06T00:44:55;238.45;;;179.00;;
64623;SDS011;51031;50.912;9.242;2022-07-06T00:45:11;238.25;;;179.77;;
64623;SDS011;51031;50.912;9.242;2022-07-06T00:45:28;241.00;;;180.20;;
64623;SDS011;51031;50.912;9.242;2022-07-06T00:45:44;239.30;;;177.27;;
64623;SDS011;51031;50.912;9.242;2022-07-06T00:46:01;183.68;;;136.35;;
64623;SDS011;51031;50.912;9.242;2022-07-06T00:46:17;180.38;;;134.95;;
64623;SDS011;51031;50.912;9.242;2022-07-06T00:46:34;190.02;;;142.07;;
64623;SDS011;51031;50.912;9.242;2022-07-06T00:46:50;133.88;;;99.63;;
64623;SDS011;51031;50.912;9.242;2022-07-06T00:47:07;135.30;;;100.13;;
64623;SDS011;51031;50.912;9.242;2022-07-06T00:47:23;180.87;;;132.67;;
64623;SDS011;51031;50.912;9.242;2022-07-06T00:47:39;232.48;;;173.55;;
64623;SDS011;51031;50.912;9.242;2022-07-06T00:47:55;236.10;;;176.68;;
64623;SDS011;51031;50.912;9.242;2022-07-06T00:48:11;200.57;;;149.48;;
64623;SDS011;51031;50.912;9.242;2022-07-06T00:48:27;199.05;;;148.35;;
64623;SDS011;51031;50.912;9.242;2022-07-06T00:48:44;210.80;;;157.25;;
64623;SDS011;51031;50.912;9.242;2022-07-06T00:49:00;220.15;;;163.73;;
64623;SDS011;51031;50.912;9.242;2022-07-06T00:49:16;237.65;;;177.95;;
64623;SDS011;51031;50.912;9.242;2022-07-06T00:49:48;239.15;;;177.02;;
64623;SDS011;51031;50.912;9.242;2022-07-06T00:50:22;222.50;;;163.48;;
64623;SDS011;51031;50.912;9.242;2022-07-06T00:50:40;198.30;;;146.15;;
64623;SDS011;51031;50.912;9.242;2022-07-06T00:50:56;199.98;;;149.60;;
64623;SDS011;51031;50.912;9.242;2022-07-06T00:51:12;233.65;;;175.13;;
64623;SDS011;51031;50.912;9.242;2022-07-06T00:51:30;220.60;;;164.85;;
64623;SDS011;51031;50.912;9.242;2022-07-06T00:51:47;198.55;;;146.52;;
64623;SDS011;51031;50.912;9.242;2022-07-06T00:52:03;165.02;;;121.88;;
64623;SDS011;51031;50.912;9.242;2022-07-06T00:52:21;183.30;;;135.05;;
64623;SDS011;51031;50.912;9.242;2022-07-06T00:52:36;219.50;;;162.77;;
64623;SDS011;51031;50.912;9.242;2022-07-06T00:52:53;202.82;;;151.43;;
64623;SDS011;51031;50.912;9.242;2022-07-06T00:53:09;194.05;;;142.25;;
64623;SDS011;51031;50.912;9.242;2022-07-06T00:53:26;162.50;;;118.07;;
64623;SDS011;51031;50.912;9.242;2022-07-06T00:53:42;160.35;;;117.68;;
64623;SDS011;51031;50.912;9.242;2022-07-06T00:54:00;219.75;;;159.70;;
64623;SDS011;51031;50.912;9.242;2022-07-06T00:54:18;236.20;;;174.48;;
64623;SDS011;51031;50.912;9.242;2022-07-06T00:54:34;233.18;;;173.55;;
64623;SDS011;51031;50.912;9.242;2022-07-06T00:54:51;241.40;;;177.50;;
64623;SDS011;51031;50.912;9.242;2022-07-06T00:55:10;231.05;;;171.48;;
64623;SDS011;51031;50.912;9.242;2022-07-06T00:55:27;209.82;;;157.02;;
64623;SDS011;51031;50.912;9.242;2022-07-06T00:55:44;236.85;;;176.48;;
64623;SDS011;51031;50.912;9.242;2022-07-06T00:56:00;167.95;;;125.68;;
64623;SDS011;51031;50.912;9.242;2022-07-06T00:56:18;126.43;;;94.38;;
64623;SDS011;51031;50.912;9.242;2022-07-06T00:56:34;201.05;;;150.65;;
64623;SDS011;51031;50.912;9.242;2022-07-06T00:56:50;243.05;;;181.20;;
64623;SDS011;51031;50.912;9.242;2022-07-06T00:57:07;237.73;;;176.50;;
64623;SDS011;51031;50.912;9.242;2022-07-06T00:57:22;232.35;;;171.88;;
64623;SDS011;51031;50.912;9.242;2022-07-06T00:57:41;229.70;;;168.52;;
64623;SDS011;51031;50.912;9.242;2022-07-06T00:57:58;232.13;;;171.02;;
64623;SDS011;51031;50.912;9.242;2022-07-06T00:58:17;210.63;;;154.80;;
64623;SDS011;51031;50.912;9.242;2022-07-06T00:58:33;199.48;;;146.35;;
64623;SDS011;51031;50.912;9.242;2022-07-06T00:58:49;212.70;;;158.65;;
64623;SDS011;51031;50.912;9.242;2022-07-06T00:59:04;239.07;;;177.00;;
64623;SDS011;51031;50.912;9.242;2022-07-06T00:59:21;225.75;;;166.43;;
64623;SDS011;51031;50.912;9.242;2022-07-06T00:59:38;206.55;;;153.23;;
64623;SDS011;51031;50.912;9.242;2022-07-06T00:59:54;225.50;;;166.55;;
64623;SDS011;51031;50.912;9.242;2022-07-06T01:00:12;239.13;;;175.98;;
64623;SDS011;51031;50.912;9.242;2022-07-06T01:00:30;242.85;;;178.93;;
64623;SDS011;51031;50.912;9.242;2022-07-06T01:00:48;242.77;;;179.13;;
64623;SDS011;51031;50.912;9.242;2022-07-06T01:01:04;229.10;;;167.40;;
64623;SDS011;51031;50.912;9.242;2022-07-06T01:01:19;229.95;;;168.30;;
64623;SDS011;51031;50.912;9.242;2022-07-06T01:01:36;235.85;;;175.23;;
64623;SDS011;51031;50.912;9.242;2022-07-06T01:01:52;231.20;;;173.30;;
64623;SDS011;51031;50.912;9.242;2022-07-06T01:02:08;186.32;;;138.40;;
64623;SDS011;51031;50.912;9.242;2022-07-06T01:02:24;184.80;;;136.45;;
64623;SDS011;51031;50.912;9.242;2022-07-06T01:02:40;207.50;;;152.95;;
64623;SDS011;51031;50.912;9.242;2022-07-06T01:02:56;232.00;;;170.75;;
64623;SDS011;51031;50.912;9.242;2022-07-06T01:03:12;179.10;;;133.70;;
64623;SDS011;51031;50.912;9.242;2022-07-06T01:03:28;182.52;;;134.63;;
64623;SDS011;51031;50.912;9.242;2022-07-06T01:03:44;238.37;;;174.40;;
64623;SDS011;51031;50.912;9.242;2022-07-06T01:04:02;239.35;;;175.75;;
64623;SDS011;51031;50.912;9.242;2022-07-06T01:04:17;244.02;;;180.38;;
64623;SDS011;51031;50.912;9.242;2022-07-06T01:04:33;241.50;;;178.40;;
64623;SDS011;51031;50.912;9.242;2022-07-06T01:04:50;232.05;;;172.00;;
64623;SDS011;51031;50.912;9.242;2022-07-06T01:05:07;234.93;;;175.45;;
64623;SDS011;51031;50.912;9.242;2022-07-06T01:05:24;241.13;;;178.45;;
64623;SDS011;51031;50.912;9.242;2022-07-06T01:05:41;242.05;;;179.70;;
64623;SDS011;51031;50.912;9.242;2022-07-06T01:05:57;242.60;;;179.98;;
64623;SDS011;51031;50.912;9.242;2022-07-06T01:06:13;245.87;;;182.97;;
64623;SDS011;51031;50.912;9.242;2022-07-06T01:06:31;249.10;;;186.45;;
64623;SDS011;51031;50.912;9.242;2022-07-06T01:06:47;251.50;;;186.13;;
64623;SDS011;51031;50.912;9.242;2022-07-06T01:07:04;238.27;;;176.55;;
64623;SDS011;51031;50.912;9.242;2022-07-06T01:07:20;232.00;;;172.13;;
64623;SDS011;51031;50.912;9.242;2022-07-06T01:07:36;217.32;;;160.30;;
64623;SDS011;51031;50.912;9.242;2022-07-06T01:07:52;205.98;;;151.38;;
64623;SDS011;51031;50.912;9.242;2022-07-06T01:08:09;230.40;;;169.13;;
64623;SDS011;51031;50.912;9.242;2022-07-06T01:08:25;234.10;;;172.27;;
64623;SDS011;51031;50.912;9.242;2022-07-06T01:08:42;229.30;;;169.05;;
64623;SDS011;51031;50.912;9.242;2022-07-06T01:08:58;229.70;;;168.35;;
64623;SDS011;51031;50.912;9.242;2022-07-06T01:09:14;236.93;;;174.02;;
64623;SDS011;51031;50.912;9.242;2022-07-06T01:09:30;209.10;;;152.15;;
64623;SDS011;51031;50.912;9.242;2022-07-06T01:09:46;216.73;;;160.57;;
64623;SDS011;51031;50.912;9.242;2022-07-06T01:10:02;246.32;;;183.88;;
64623;SDS011;51031;50.912;9.242;2022-07-06T01:10:19;235.30;;;174.50;;
64623;SDS011;51031;50.912;9.242;2022-07-06T01:10:36;232.20;;;170.82;;
64623;SDS011;51031;50.912;9.242;2022-07-06T01:10:52;239.55;;;177.90;;
64623;SDS011;51031;50.912;9.242;2022-07-06T01:11:08;231.73;;;171.80;;
64623;SDS011;51031;50.912;9.242;2022-07-06T01:11:24;228.93;;;169.95;;
64623;SDS011;51031;50.912;9.242;2022-07-06T01:11:40;236.57;;;176.38;;
64623;SDS011;51031;50.912;9.242;2022-07-06T01:11:57;247.35;;;182.45;;
64623;SDS011;51031;50.912;9.242;2022-07-06T01:12:13;251.98;;;187.10;;
64623;SDS011;51031;50.912;9.242;2022-07-06T01:12:29;242.20;;;180.50;;
64623;SDS011;51031;50.912;9.242;2022-07-06T01:12:46;234.82;;;172.38;;
64623;SDS011;51031;50.912;9.242;2022-07-06T01:13:03;166.48;;;123.18;;
64623;SDS011;51031;50.912;9.242;2022-07-06T01:13:20;126.80;;;95.07;;
64623;SDS011;51031;50.912;9.242;2022-07-06T01:13:36;183.75;;;136.77;;
64623;SDS011;51031;50.912;9.242;2022-07-06T01:13:52;163.32;;;120.15;;
64623;SDS011;51031;50.912;9.242;2022-07-06T01:14:10;114.75;;;83.70;;
64623;SDS011;51031;50.912;9.242;2022-07-06T01:14:27;155.48;;;115.20;;
64623;SDS011;51031;50.912;9.242;2022-07-06T01:14:43;196.63;;;143.43;;
64623;SDS011;51031;50.912;9.242;2022-07-06T01:15:01;188.32;;;136.52;;
64623;SDS011;51031;50.912;9.242;2022-07-06T01:15:20;194.25;;;140.93;;
64623;SDS011;51031;50.912;9.242;2022-07-06T01:15:37;243.10;;;175.95;;
64623;SDS011;51031;50.912;9.242;2022-07-06T01:15:53;168.50;;;121.45;;
64623;SDS011;51031;50.912;9.242;2022-07-06T01:16:09;98.05;;;71.00;;
64623;SDS011;51031;50.912;9.242;2022-07-06T01:16:26;88.93;;;64.10;;
64623;SDS011;51031;50.912;9.242;2022-07-06T01:16:42;88.37;;;64.03;;
64623;SDS011;51031;50.912;9.242;2022-07-06T01:16:58;85.88;;;62.95;;
64623;SDS011;51031;50.912;9.242;2022-07-06T01:17:15;96.65;;;70.40;;
64623;SDS011;51031;50.912;9.242;2022-07-06T01:17:31;115.60;;;82.82;;
64623;SDS011;51031;50.912;9.242;2022-07-06T01:17:48;166.32;;;119.05;;
64623;SDS011;51031;50.912;9.242;2022-07-06T01:18:05;176.82;;;128.45;;
64623;SDS011;51031;50.912;9.242;2022-07-06T01:18:21;149.85;;;108.60;;
64623;SDS011;51031;50.912;9.242;2022-07-06T01:18:37;149.75;;;108.68;;
64623;SDS011;51031;50.912;9.242;2022-07-06T01:18:53;211.50;;;155.30;;
64623;SDS011;51031;50.912;9.242;2022-07-06T01:19:09;250.57;;;183.10;;
64623;SDS011;51031;50.912;9.242;2022-07-06T01:19:24;247.85;;;181.43;;
64623;SDS011;51031;50.912;9.242;2022-07-06T01:19:41;249.40;;;184.88;;
64623;SDS011;51031;50.912;9.242;2022-07-06T01:20:22;252.68;;;187.07;;
64623;SDS011;51031;50.912;9.242;2022-07-06T01:20:38;251.73;;;185.65;;
64623;SDS011;51031;50.912;9.242;2022-07-06T01:21:05;254.70;;;188.32;;
64623;SDS011;51031;50.912;9.242;2022-07-06T01:21:23;249.50;;;186.80;;
64623;SDS011;51031;50.912;9.242;2022-07-06T01:21:38;246.10;;;184.80;;
64623;SDS011;51031;50.912;9.242;2022-07-06T01:21:54;242.80;;;181.45;;
64623;SDS011;51031;50.912;9.242;2022-07-06T01:22:10;240.25;;;179.77;;
64623;SDS011;51031;50.912;9.242;2022-07-06T01:22:27;242.90;;;181.18;;
64623;SDS011;51031;50.912;9.242;2022-07-06T01:22:43;252.07;;;188.30;;
64623;SDS011;51031;50.912;9.242;2022-07-06T01:23:00;256.30;;;191.95;;
64623;SDS011;51031;50.912;9.242;2022-07-06T01:23:16;261.65;;;197.52;;
64623;SDS011;51031;50.912;9.242;2022-07-06T01:23:31;258.98;;;195.48;;
64623;SDS011;51031;50.912;9.242;2022-07-06T01:23:47;253.73;;;190.27;;
64623;SDS011;51031;50.912;9.242;2022-07-06T01:24:05;245.88;;;182.48;;
64623;SDS011;51031;50.912;9.242;2022-07-06T01:24:21;244.98;;;181.55;;
64623;SDS011;51031;50.912;9.242;2022-07-06T01:24:37;252.20;;;188.38;;
64623;SDS011;51031;50.912;9.242;2022-07-06T01:24:53;256.90;;;191.35;;
64623;SDS011;51031;50.912;9.242;2022-07-06T01:25:09;245.52;;;181.32;;
64623;SDS011;51031;50.912;9.242;2022-07-06T01:25:25;253.07;;;189.88;;
64623;SDS011;51031;50.912;9.242;2022-07-06T01:25:42;267.73;;;199.65;;
64623;SDS011;51031;50.912;9.242;2022-07-06T01:25:58;260.52;;;193.70;;
64623;SDS011;51031;50.912;9.242;2022-07-06T01:26:14;256.40;;;190.35;;
64623;SDS011;51031;50.912;9.242;2022-07-06T01:26:33;257.77;;;189.30;;
64623;SDS011;51031;50.912;9.242;2022-07-06T01:26:49;258.27;;;189.73;;
64623;SDS011;51031;50.912;9.242;2022-07-06T01:27:06;257.77;;;189.90;;
64623;SDS011;51031;50.912;9.242;2022-07-06T01:27:23;251.75;;;187.57;;
64623;SDS011;51031;50.912;9.242;2022-07-06T01:27:40;258.17;;;193.85;;
64623;SDS011;51031;50.912;9.242;2022-07-06T01:27:57;262.30;;;195.70;;
64623;SDS011;51031;50.912;9.242;2022-07-06T01:28:13;265.88;;;198.68;;
64623;SDS011;51031;50.912;9.242;2022-07-06T01:28:29;270.27;;;203.52;;
64623;SDS011;51031;50.912;9.242;2022-07-06T01:28:45;267.07;;;203.60;;
64623;SDS011;51031;50.912;9.242;2022-07-06T01:29:04;259.30;;;195.02;;
64623;SDS011;51031;50.912;9.242;2022-07-06T01:29:19;257.40;;;193.05;;
64623;SDS011;51031;50.912;9.242;2022-07-06T01:29:36;260.55;;;197.23;;
64623;SDS011;51031;50.912;9.242;2022-07-06T01:29:54;264.83;;;200.23;;
64623;SDS011;51031;50.912;9.242;2022-07-06T01:30:11;269.15;;;201.63;;
64623;SDS011;51031;50.912;9.242;2022-07-06T01:30:29;278.75;;;212.82;;
64623;SDS011;51031;50.912;9.242;2022-07-06T01:30:44;280.20;;;215.20;;
64623;SDS011;51031;50.912;9.242;2022-07-06T01:31:00;266.77;;;202.10;;
64623;SDS011;51031;50.912;9.242;2022-07-06T01:31:19;267.17;;;200.10;;
64623;SDS011;51031;50.912;9.242;2022-07-06T01:31:44;258.90;;;193.25;;
64623;SDS011;51031;50.912;9.242;2022-07-06T01:32:01;254.18;;;188.05;;
64623;SDS011;51031;50.912;9.242;2022-07-06T01:32:17;241.23;;;180.13;;
64623;SDS011;51031;50.912;9.242;2022-07-06T01:32:33;238.65;;;176.80;;
64623;SDS011;51031;50.912;9.242;2022-07-06T01:32:50;257.08;;;191.85;;
64623;SDS011;51031;50.912;9.242;2022-07-06T01:33:07;264.17;;;197.20;;
64623;SDS011;51031;50.912;9.242;2022-07-06T01:33:22;265.20;;;198.27;;
64623;SDS011;51031;50.912;9.242;2022-07-06T01:33:38;262.03;;;197.07;;
64623;SDS011;51031;50.912;9.242;2022-07-06T01:33:54;261.20;;;194.80;;
64623;SDS011;51031;50.912;9.242;2022-07-06T01:34:11;268.92;;;198.98;;
64623;SDS011;51031;50.912;9.242;2022-07-06T01:34:28;271.02;;;203.35;;
64623;SDS011;51031;50.912;9.242;2022-07-06T01:34:44;265.17;;;199.88;;